Time;durP1;ratioP1;P1;durP2;ratioP2;P2;SDS_P1;SDS_P2;PMS_P1;PMS_P2;Temp;Humidity;BMP_temperature;BMP_pressure;BME280_temperature;BME280_humidity;BME280_pressure;Samples;Min_cycle;Max_cycle;Signal;HPM_P1;HPM_P2
2021/12/06 00:02:27;;;;;;;27.43;19.67;;;;;;;;;;5037019;28;20226;-70
2021/12/06 00:04:54;;;;;;;28.33;19.40;;;;;;;;;;5038267;28;21045;-70
2021/12/06 00:07:23;;;;;;;29.83;19.77;;;;;;;;;;5037128;28;20222;-70
2021/12/06 00:09:51;;;;;;;27.73;20.33;;;;;;;;;;5035106;28;20300;-70
2021/12/06 00:12:18;;;;;;;31.80;21.43;;;;;;;;;;5038211;28;20207;-70
2021/12/06 00:14:45;;;;;;;28.60;18.57;;;;;;;;;;5037667;28;20214;-70
2021/12/06 00:17:14;;;;;;;32.03;20.70;;;;;;;;;;5035955;28;20234;-70
2021/12/06 00:19:42;;;;;;;30.63;21.27;;;;;;;;;;5038372;28;20237;-70
2021/12/06 00:22:12;;;;;;;31.03;19.87;;;;;;;;;;5037984;28;20280;-70
2021/12/06 00:24:39;;;;;;;33.60;21.43;;;;;;;;;;5035403;28;20682;-70
2021/12/06 00:27:07;;;;;;;30.00;20.23;;;;;;;;;;5037593;28;20670;-69
2021/12/06 00:29:34;;;;;;;31.57;21.37;;;;;;;;;;5037797;28;20796;-70
2021/12/06 00:32:01;;;;;;;30.77;20.67;;;;;;;;;;5036940;28;20268;-72
2021/12/06 00:34:32;;;;;;;35.27;22.07;;;;;;;;;;5037464;28;20341;-70
2021/12/06 00:37:15;;;;;;;34.40;21.30;;;;;;;;;;5038234;28;20290;-70
2021/12/06 00:39:43;;;;;;;33.80;20.80;;;;;;;;;;5036024;28;20990;-70
2021/12/06 00:42:11;;;;;;;31.67;20.90;;;;;;;;;;5036555;28;20217;-70
2021/12/06 00:44:37;;;;;;;28.97;20.23;;;;;;;;;;5038568;28;20424;-70
2021/12/06 00:47:05;;;;;;;29.93;19.77;;;;;;;;;;5036498;28;20531;-70
2021/12/06 00:49:32;;;;;;;28.57;19.30;;;;;;;;;;5036853;28;20301;-70
2021/12/06 00:51:59;;;;;;;31.53;20.37;;;;;;;;;;5038265;28;20669;-70
2021/12/06 00:54:25;;;;;;;30.90;20.73;;;;;;;;;;5036529;28;20515;-70
2021/12/06 00:56:52;;;;;;;32.67;20.53;;;;;;;;;;5035454;28;20210;-70
2021/12/06 00:59:19;;;;;;;32.40;21.20;;;;;;;;;;5037183;28;20369;-70
2021/12/06 01:01:46;;;;;;;32.97;21.07;;;;;;;;;;5037458;28;20223;-70
2021/12/06 01:04:12;;;;;;;33.83;20.77;;;;;;;;;;5036084;28;21024;-70
2021/12/06 01:06:39;;;;;;;31.10;20.07;;;;;;;;;;5036688;28;20214;-70
2021/12/06 01:09:05;;;;;;;33.03;21.50;;;;;;;;;;5037524;28;20206;-70
2021/12/06 01:11:31;;;;;;;29.63;19.87;;;;;;;;;;5035453;28;20659;-70
2021/12/06 01:13:58;;;;;;;31.10;20.73;;;;;;;;;;5035807;28;20252;-70
2021/12/06 01:16:26;;;;;;;30.20;20.20;;;;;;;;;;5038088;28;20309;-70
2021/12/06 01:18:52;;;;;;;35.13;21.83;;;;;;;;;;5036388;28;20733;-70
2021/12/06 01:21:24;;;;;;;37.90;23.17;;;;;;;;;;5037009;28;20216;-70
2021/12/06 01:23:55;;;;;;;37.43;22.27;;;;;;;;;;5041572;28;20230;-70
2021/12/06 01:26:43;;;;;;;34.20;21.67;;;;;;;;;;5040320;28;20329;-70
2021/12/06 01:29:37;;;;;;;36.27;21.37;;;;;;;;;;5039004;28;20214;-70
2021/12/06 01:32:13;;;;;;;38.87;20.73;;;;;;;;;;5039332;28;20231;-70
2021/12/06 01:40:19;;;;;;;40.53;23.87;;;;;;;;;;5039654;28;20245;-70
2021/12/06 01:42:46;;;;;;;35.37;21.93;;;;;;;;;;5040297;28;20221;-71
2021/12/06 01:45:12;;;;;;;43.00;25.47;;;;;;;;;;5041406;28;21114;-70
2021/12/06 01:47:41;;;;;;;38.93;23.37;;;;;;;;;;5040007;28;20226;-70
2021/12/06 01:50:10;;;;;;;34.10;22.80;;;;;;;;;;5038747;28;20207;-70
2021/12/06 01:52:41;;;;;;;33.10;22.57;;;;;;;;;;5040832;28;20215;-70
2021/12/06 01:55:10;;;;;;;42.80;24.40;;;;;;;;;;5039816;28;20218;-71
2021/12/06 01:57:37;;;;;;;41.37;24.30;;;;;;;;;;5039582;28;20211;-71
2021/12/06 02:00:04;;;;;;;46.60;25.60;;;;;;;;;;5039970;28;20352;-71
2021/12/06 02:02:31;;;;;;;39.23;24.73;;;;;;;;;;5040800;28;21013;-71
2021/12/06 02:04:59;;;;;;;40.63;25.50;;;;;;;;;;5039059;28;20276;-71
2021/12/06 02:07:27;;;;;;;41.47;23.30;;;;;;;;;;5039142;28;20202;-71
2021/12/06 02:09:55;;;;;;;41.33;25.70;;;;;;;;;;5040361;28;20280;-71
2021/12/06 02:12:22;;;;;;;40.33;24.47;;;;;;;;;;5038798;28;20219;-70
2021/12/06 02:14:56;;;;;;;39.10;24.70;;;;;;;;;;5038696;28;21051;-71
2021/12/06 02:17:27;;;;;;;51.37;26.97;;;;;;;;;;5040878;28;20226;-71
2021/12/06 02:19:59;;;;;;;54.87;27.97;;;;;;;;;;5039890;28;20291;-71
2021/12/06 02:22:29;;;;;;;52.03;27.33;;;;;;;;;;5038299;28;20211;-70
2021/12/06 02:24:57;;;;;;;49.60;27.57;;;;;;;;;;5038263;28;21162;-71
2021/12/06 02:27:26;;;;;;;62.40;30.43;;;;;;;;;;5040011;28;20906;-71
2021/12/06 02:29:54;;;;;;;54.07;28.73;;;;;;;;;;5038825;28;20214;-70
2021/12/06 02:32:21;;;;;;;61.17;31.83;;;;;;;;;;5038026;28;20755;-70
2021/12/06 02:34:52;;;;;;;48.87;28.07;;;;;;;;;;5039649;28;21118;-71
2021/12/06 02:37:21;;;;;;;61.53;30.77;;;;;;;;;;5038670;28;20736;-70
2021/12/06 02:39:50;;;;;;;57.83;30.83;;;;;;;;;;5038060;28;20236;-71
2021/12/06 02:42:18;;;;;;;67.57;32.07;;;;;;;;;;5039217;28;20284;-70
2021/12/06 02:44:45;;;;;;;54.67;29.80;;;;;;;;;;5039903;28;20819;-70
2021/12/06 02:47:13;;;;;;;61.30;30.17;;;;;;;;;;5038371;28;20226;-70
2021/12/06 02:49:40;;;;;;;62.93;32.57;;;;;;;;;;5038552;28;20238;-70
2021/12/06 02:52:08;;;;;;;66.33;33.60;;;;;;;;;;5040134;28;20214;-71
2021/12/06 02:54:35;;;;;;;60.27;30.73;;;;;;;;;;5037704;28;20227;-71
2021/12/06 02:59:45;;;;;;;61.37;30.60;;;;;;;;;;5038039;28;20965;-71
2021/12/06 03:02:15;;;;;;;58.10;30.63;;;;;;;;;;5038246;28;20284;-71
2021/12/06 03:04:42;;;;;;;59.70;29.83;;;;;;;;;;5036654;28;20351;-71
2021/12/06 03:07:10;;;;;;;54.63;29.37;;;;;;;;;;5039411;28;20214;-71
2021/12/06 03:09:39;;;;;;;66.17;31.83;;;;;;;;;;5038582;28;20245;-71
2021/12/06 03:12:10;;;;;;;52.13;28.93;;;;;;;;;;5038053;28;20880;-71
2021/12/06 03:14:39;;;;;;;53.17;29.47;;;;;;;;;;5038869;28;20280;-71
2021/12/06 03:17:11;;;;;;;55.47;30.40;;;;;;;;;;5038735;28;20693;-71
2021/12/06 03:19:38;;;;;;;54.67;30.30;;;;;;;;;;5037330;28;20255;-71
2021/12/06 03:22:06;;;;;;;53.80;30.70;;;;;;;;;;5038311;28;20968;-71
2021/12/06 03:24:32;;;;;;;51.63;28.77;;;;;;;;;;5038086;28;20226;-71
2021/12/06 03:27:00;;;;;;;47.77;29.07;;;;;;;;;;5037088;28;20849;-71
2021/12/06 03:29:29;;;;;;;58.80;31.73;;;;;;;;;;5038650;28;20211;-71
2021/12/06 03:31:55;;;;;;;54.63;29.43;;;;;;;;;;5038953;28;20222;-71
2021/12/06 03:34:26;;;;;;;55.40;31.23;;;;;;;;;;5038497;28;20261;-70
2021/12/06 03:36:53;;;;;;;52.73;28.40;;;;;;;;;;5036989;28;20214;-70
2021/12/06 03:39:23;;;;;;;57.07;29.97;;;;;;;;;;5039255;28;20650;-70
2021/12/06 03:41:52;;;;;;;51.70;28.67;;;;;;;;;;5037703;28;20211;-71
2021/12/06 03:44:20;;;;;;;55.30;29.60;;;;;;;;;;5036390;28;20226;-71
2021/12/06 03:46:51;;;;;;;55.10;29.73;;;;;;;;;;5038397;28;20310;-71
2021/12/06 03:49:19;;;;;;;55.10;30.60;;;;;;;;;;5038764;28;20230;-71
2021/12/06 03:51:46;;;;;;;53.40;28.60;;;;;;;;;;5036742;28;20839;-71
2021/12/06 03:54:17;;;;;;;56.97;31.27;;;;;;;;;;5037593;28;20211;-70
2021/12/06 03:56:44;;;;;;;50.03;28.33;;;;;;;;;;5038835;28;20428;-71
2021/12/06 03:59:11;;;;;;;50.10;29.73;;;;;;;;;;5036994;28;20655;-71
2021/12/06 04:01:38;;;;;;;55.03;29.33;;;;;;;;;;5036418;28;20230;-71
2021/12/06 04:04:07;;;;;;;53.53;28.43;;;;;;;;;;5039052;28;20227;-71
2021/12/06 04:06:36;;;;;;;60.43;29.57;;;;;;;;;;5037020;28;20218;-71
2021/12/06 04:09:04;;;;;;;59.73;29.57;;;;;;;;;;5037597;28;20214;-70
2021/12/06 04:11:31;;;;;;;47.10;27.30;;;;;;;;;;5037655;28;20226;-71
2021/12/06 04:13:57;;;;;;;55.80;29.00;;;;;;;;;;5037644;28;20249;-71
2021/12/06 04:16:24;;;;;;;46.97;27.60;;;;;;;;;;5036251;28;20230;-71
2021/12/06 04:18:50;;;;;;;57.00;31.30;;;;;;;;;;5038374;28;20978;-71
2021/12/06 04:21:19;;;;;;;54.60;29.00;;;;;;;;;;5037211;28;20210;-71
2021/12/06 04:23:45;;;;;;;55.27;29.67;;;;;;;;;;5035674;28;20359;-71
2021/12/06 04:26:11;;;;;;;54.97;30.43;;;;;;;;;;5036838;28;20230;-71
2021/12/06 04:28:43;;;;;;;54.57;29.57;;;;;;;;;;5038282;28;20714;-70
2021/12/06 04:31:10;;;;;;;56.40;28.83;;;;;;;;;;5035962;28;20231;-70
2021/12/06 04:33:36;;;;;;;62.47;31.13;;;;;;;;;;5037053;28;20210;-70
2021/12/06 04:36:04;;;;;;;53.97;29.33;;;;;;;;;;5038141;28;20549;-70
2021/12/06 04:38:32;;;;;;;58.53;31.00;;;;;;;;;;5035038;28;20238;-72
2021/12/06 04:40:59;;;;;;;56.57;28.77;;;;;;;;;;5036693;28;20231;-72
2021/12/06 04:43:25;;;;;;;58.70;31.10;;;;;;;;;;5037579;28;20758;-72
2021/12/06 04:45:52;;;;;;;58.30;30.40;;;;;;;;;;5035347;28;20780;-70
2021/12/06 04:48:18;;;;;;;59.90;30.13;;;;;;;;;;5035904;28;20235;-70
2021/12/06 04:50:45;;;;;;;59.53;30.83;;;;;;;;;;5038209;28;20281;-70
2021/12/06 04:53:15;;;;;;;54.67;30.13;;;;;;;;;;5036125;28;20206;-70
2021/12/06 04:55:52;;;;;;;60.57;30.03;;;;;;;;;;5038173;28;20236;-70
2021/12/06 04:58:22;;;;;;;57.83;30.27;;;;;;;;;;5041070;28;20260;-70
2021/12/06 05:00:52;;;;;;;53.33;29.87;;;;;;;;;;5040988;28;20690;-70
2021/12/06 05:03:19;;;;;;;60.73;30.20;;;;;;;;;;5039416;28;20283;-70
2021/12/06 05:05:50;;;;;;;52.13;29.13;;;;;;;;;;5040656;28;20256;-70
2021/12/06 05:08:22;;;;;;;59.40;31.77;;;;;;;;;;5041307;28;20260;-70
2021/12/06 05:10:51;;;;;;;56.23;29.97;;;;;;;;;;5039094;28;20234;-70
2021/12/06 05:13:18;;;;;;;61.60;31.20;;;;;;;;;;5040384;28;20214;-70
2021/12/06 05:15:45;;;;;;;66.23;31.97;;;;;;;;;;5041907;28;21054;-70
2021/12/06 05:18:11;;;;;;;62.70;29.90;;;;;;;;;;5039304;28;20225;-70
2021/12/06 05:20:37;;;;;;;62.17;30.53;;;;;;;;;;5039824;28;20272;-70
2021/12/06 05:23:05;;;;;;;56.57;29.53;;;;;;;;;;5041522;28;20666;-70
2021/12/06 05:25:31;;;;;;;63.80;29.50;;;;;;;;;;5039178;28;20721;-70
2021/12/06 05:28:00;;;;;;;66.80;32.03;;;;;;;;;;5039278;28;20207;-70
2021/12/06 05:30:27;;;;;;;66.33;33.50;;;;;;;;;;5041366;28;20214;-73
2021/12/06 05:32:57;;;;;;;69.27;31.83;;;;;;;;;;5039920;28;20756;-74
2021/12/06 05:35:24;;;;;;;73.50;33.23;;;;;;;;;;5039643;28;20606;-73
2021/12/06 05:37:54;;;;;;;80.20;34.27;;;;;;;;;;5040716;28;20261;-73
2021/12/06 05:40:24;;;;;;;81.77;35.53;;;;;;;;;;5040608;28;20226;-73
2021/12/06 05:42:50;;;;;;;76.97;33.80;;;;;;;;;;5038795;28;20211;-74
2021/12/06 05:45:21;;;;;;;72.53;32.97;;;;;;;;;;5040164;28;20284;-74
2021/12/06 05:47:48;;;;;;;71.77;33.63;;;;;;;;;;5040366;28;20711;-74
2021/12/06 05:50:16;;;;;;;84.00;35.37;;;;;;;;;;5038309;28;20475;-74
2021/12/06 05:52:43;;;;;;;68.47;32.97;;;;;;;;;;5039998;28;20211;-74
2021/12/06 05:55:10;;;;;;;76.37;33.87;;;;;;;;;;5040854;28;20223;-74
2021/12/06 05:57:37;;;;;;;75.07;34.10;;;;;;;;;;5039477;28;20215;-76
2021/12/06 06:00:06;;;;;;;86.33;34.43;;;;;;;;;;5038098;28;20276;-77
2021/12/06 06:02:34;;;;;;;82.07;34.80;;;;;;;;;;5040304;28;20862;-76
2021/12/06 06:05:01;;;;;;;74.80;33.30;;;;;;;;;;5039588;28;20233;-76
2021/12/06 06:07:27;;;;;;;62.50;29.10;;;;;;;;;;5037804;28;20262;-76
2021/12/06 06:09:53;;;;;;;63.47;30.37;;;;;;;;;;5039499;28;20222;-76
2021/12/06 06:12:20;;;;;;;80.70;32.63;;;;;;;;;;5039030;28;20642;-76
2021/12/06 06:14:46;;;;;;;59.87;30.60;;;;;;;;;;5038675;28;20253;-76
2021/12/06 06:17:15;;;;;;;72.07;32.90;;;;;;;;;;5039829;28;20951;-77
2021/12/06 06:19:46;;;;;;;78.83;34.03;;;;;;;;;;5039557;28;20226;-76
2021/12/06 06:22:13;;;;;;;79.40;33.33;;;;;;;;;;5037937;28;20861;-76
2021/12/06 06:24:40;;;;;;;80.87;34.30;;;;;;;;;;5038010;28;20905;-76
2021/12/06 06:27:07;;;;;;;74.53;34.17;;;;;;;;;;5040226;28;20210;-76
2021/12/06 06:29:34;;;;;;;66.40;32.67;;;;;;;;;;5038367;28;20215;-76
2021/12/06 06:32:01;;;;;;;72.87;34.17;;;;;;;;;;5038870;28;20288;-76
2021/12/06 06:34:28;;;;;;;66.17;30.93;;;;;;;;;;5039738;28;20214;-76
2021/12/06 06:36:56;;;;;;;70.93;32.50;;;;;;;;;;5037834;28;20870;-76
2021/12/06 06:39:23;;;;;;;72.80;33.33;;;;;;;;;;5038386;28;20311;-76
2021/12/06 06:41:51;;;;;;;69.80;31.07;;;;;;;;;;5040072;28;20211;-76
2021/12/06 06:44:20;;;;;;;66.53;32.53;;;;;;;;;;5037507;28;20771;-76
2021/12/06 06:46:47;;;;;;;63.60;32.37;;;;;;;;;;5037597;28;20775;-76
2021/12/06 06:49:14;;;;;;;66.53;31.13;;;;;;;;;;5039183;28;20808;-74
2021/12/06 06:51:42;;;;;;;75.53;33.23;;;;;;;;;;5039509;28;20720;-74
2021/12/06 06:54:10;;;;;;;70.67;31.50;;;;;;;;;;5037307;28;20223;-74
2021/12/06 06:56:37;;;;;;;65.93;31.40;;;;;;;;;;5039386;28;20227;-74
2021/12/06 06:59:04;;;;;;;72.93;32.37;;;;;;;;;;5037491;28;20223;-74
2021/12/06 07:01:30;;;;;;;70.30;31.80;;;;;;;;;;5036004;28;23992;-74
2021/12/06 07:03:57;;;;;;;75.03;32.13;;;;;;;;;;5038584;28;20260;-74
2021/12/06 07:06:25;;;;;;;71.50;31.80;;;;;;;;;;5035907;28;20230;-74
2021/12/06 07:08:54;;;;;;;71.87;33.60;;;;;;;;;;5035634;28;20214;-74
2021/12/06 07:11:22;;;;;;;68.70;31.57;;;;;;;;;;5036674;28;20582;-74
2021/12/06 07:13:49;;;;;;;68.80;32.47;;;;;;;;;;5035320;28;20213;-75
2021/12/06 07:16:17;;;;;;;70.93;33.30;;;;;;;;;;5037094;28;20878;-75
2021/12/06 07:18:44;;;;;;;71.20;32.87;;;;;;;;;;5035289;28;20215;-74
2021/12/06 07:21:13;;;;;;;66.17;32.40;;;;;;;;;;5035210;28;20277;-74
2021/12/06 07:23:40;;;;;;;66.20;32.43;;;;;;;;;;5036936;28;20217;-74
2021/12/06 07:26:08;;;;;;;68.07;32.40;;;;;;;;;;5034350;28;20797;-74
2021/12/06 07:28:36;;;;;;;67.20;32.20;;;;;;;;;;5036529;28;20333;-74
2021/12/06 07:31:05;;;;;;;66.43;30.57;;;;;;;;;;5035955;28;21297;-74
2021/12/06 07:33:32;;;;;;;64.77;31.33;;;;;;;;;;5034850;28;20218;-74
2021/12/06 07:35:59;;;;;;;61.63;30.20;;;;;;;;;;5035592;28;20215;-74
2021/12/06 07:38:25;;;;;;;70.77;33.00;;;;;;;;;;5033339;28;20284;-75
2021/12/06 07:40:52;;;;;;;70.13;31.83;;;;;;;;;;5035323;28;20283;-75
2021/12/06 07:43:18;;;;;;;64.03;32.27;;;;;;;;;;5034938;28;20620;-74
2021/12/06 07:45:47;;;;;;;60.10;31.40;;;;;;;;;;5033208;28;20226;-76
2021/12/06 07:48:14;;;;;;;60.37;32.23;;;;;;;;;;5035165;28;20761;-74
2021/12/06 07:50:41;;;;;;;62.77;32.03;;;;;;;;;;5033553;28;20585;-74
2021/12/06 07:53:08;;;;;;;67.87;32.63;;;;;;;;;;5035825;28;20217;-76
2021/12/06 07:55:34;;;;;;;72.07;33.03;;;;;;;;;;5035364;28;20256;-76
2021/12/06 07:58:02;;;;;;;65.67;31.83;;;;;;;;;;5035671;28;20212;-75
2021/12/06 08:00:30;;;;;;;57.83;31.47;;;;;;;;;;5036408;28;20700;-76
2021/12/06 08:02:58;;;;;;;58.30;28.87;;;;;;;;;;5034343;28;20287;-76
2021/12/06 08:05:33;;;;;;;58.97;29.80;;;;;;;;;;5036531;28;20260;-74
2021/12/06 08:08:00;;;;;;;54.97;29.37;;;;;;;;;;5035616;28;20244;-76
2021/12/06 08:10:28;;;;;;;56.30;28.93;;;;;;;;;;5034600;28;20307;-76
2021/12/06 08:12:55;;;;;;;59.07;27.63;;;;;;;;;;5036658;28;20661;-75
2021/12/06 08:15:21;;;;;;;59.07;29.63;;;;;;;;;;5033232;28;20219;-76
2021/12/06 08:17:48;;;;;;;52.90;28.77;;;;;;;;;;5036236;28;20233;-76
2021/12/06 08:20:16;;;;;;;57.43;29.00;;;;;;;;;;5033757;28;20276;-76
2021/12/06 08:22:43;;;;;;;60.40;29.17;;;;;;;;;;5036382;28;20217;-74
2021/12/06 08:25:11;;;;;;;58.13;27.13;;;;;;;;;;5034214;28;20692;-75
2021/12/06 08:27:38;;;;;;;54.27;30.23;;;;;;;;;;5036004;28;20247;-76
2021/12/06 08:30:06;;;;;;;61.13;31.37;;;;;;;;;;5034620;28;20271;-75
2021/12/06 08:32:33;;;;;;;54.27;27.77;;;;;;;;;;5034640;28;20375;-76
2021/12/06 08:34:59;;;;;;;52.43;28.60;;;;;;;;;;5035493;28;21123;-74
2021/12/06 08:37:27;;;;;;;55.67;28.13;;;;;;;;;;5033473;28;20268;-74
2021/12/06 08:39:54;;;;;;;57.27;27.77;;;;;;;;;;5038199;28;20244;-74
2021/12/06 08:42:22;;;;;;;55.40;29.10;;;;;;;;;;5034307;28;20221;-74
2021/12/06 08:44:49;;;;;;;60.17;29.63;;;;;;;;;;5035397;28;20225;-75
2021/12/06 08:47:16;;;;;;;53.83;28.33;;;;;;;;;;5033063;28;20275;-76
2021/12/06 08:49:43;;;;;;;58.53;29.70;;;;;;;;;;5039674;28;20740;-74
2021/12/06 08:52:10;;;;;;;57.17;28.33;;;;;;;;;;5033605;28;20211;-75
2021/12/06 08:54:38;;;;;;;53.83;29.10;;;;;;;;;;5035647;28;20283;-75
2021/12/06 08:57:05;;;;;;;62.37;30.57;;;;;;;;;;5034648;28;20198;-74
2021/12/06 08:59:31;;;;;;;55.43;29.37;;;;;;;;;;5033837;28;20217;-74
2021/12/06 09:01:59;;;;;;;52.53;28.93;;;;;;;;;;5034977;28;20791;-75
2021/12/06 09:04:31;;;;;;;58.40;30.00;;;;;;;;;;5033756;28;20211;-76
2021/12/06 09:06:58;;;;;;;59.40;30.00;;;;;;;;;;5034424;28;20653;-76
2021/12/06 09:09:27;;;;;;;55.00;29.60;;;;;;;;;;5033758;28;20797;-74
2021/12/06 09:11:56;;;;;;;53.27;29.37;;;;;;;;;;5035559;28;20221;-74
2021/12/06 09:14:24;;;;;;;58.87;31.20;;;;;;;;;;5033881;28;20211;-75
2021/12/06 09:16:52;;;;;;;57.50;29.87;;;;;;;;;;5036595;28;20218;-74
2021/12/06 09:19:19;;;;;;;52.20;27.00;;;;;;;;;;5033325;28;20646;-74
2021/12/06 09:21:46;;;;;;;53.77;28.07;;;;;;;;;;5034942;28;20291;-75
2021/12/06 09:24:18;;;;;;;52.40;28.47;;;;;;;;;;5032493;28;20210;-74
2021/12/06 09:26:46;;;;;;;52.87;29.27;;;;;;;;;;5034363;28;20300;-75
2021/12/06 09:29:14;;;;;;;51.63;29.20;;;;;;;;;;5034619;28;20266;-74
2021/12/06 09:31:41;;;;;;;44.17;26.30;;;;;;;;;;5034563;28;20219;-73
2021/12/06 09:34:07;;;;;;;44.67;25.80;;;;;;;;;;5034682;28;20218;-76
2021/12/06 09:36:35;;;;;;;49.27;26.57;;;;;;;;;;5034166;28;20577;-73
2021/12/06 09:39:03;;;;;;;52.43;27.60;;;;;;;;;;5034952;28;20346;-75
2021/12/06 09:41:31;;;;;;;55.33;27.60;;;;;;;;;;5033781;28;20681;-75
2021/12/06 09:44:00;;;;;;;58.60;28.67;;;;;;;;;;5039714;28;20572;-76
2021/12/06 09:46:33;;;;;;;53.27;28.20;;;;;;;;;;5034943;28;20242;-76
2021/12/06 09:49:03;;;;;;;53.87;27.77;;;;;;;;;;5039400;28;20579;-73
2021/12/06 09:51:30;;;;;;;53.43;29.03;;;;;;;;;;5038603;28;20202;-76
2021/12/06 09:53:58;;;;;;;51.13;28.47;;;;;;;;;;5037663;28;20264;-76
2021/12/06 09:56:27;;;;;;;46.63;26.03;;;;;;;;;;5037660;28;20226;-76
2021/12/06 09:58:55;;;;;;;47.67;26.60;;;;;;;;;;5036416;28;20268;-75
2021/12/06 10:01:26;;;;;;;49.67;26.23;;;;;;;;;;5038233;28;20556;-76
2021/12/06 10:03:58;;;;;;;49.07;24.23;;;;;;;;;;5036561;28;20297;-76
2021/12/06 10:06:26;;;;;;;49.97;27.40;;;;;;;;;;5039467;28;20217;-76
2021/12/06 10:08:55;;;;;;;49.80;27.90;;;;;;;;;;5036337;28;20218;-76
2021/12/06 10:11:23;;;;;;;50.47;29.30;;;;;;;;;;5037539;28;20240;-77
2021/12/06 10:13:51;;;;;;;44.03;27.13;;;;;;;;;;5036887;28;20227;-76
2021/12/06 10:16:19;;;;;;;50.40;28.73;;;;;;;;;;5036990;28;20610;-76
2021/12/06 10:18:46;;;;;;;50.67;28.63;;;;;;;;;;5036904;28;20206;-76
2021/12/06 10:21:16;;;;;;;44.33;26.03;;;;;;;;;;5036903;28;20557;-75
2021/12/06 10:23:43;;;;;;;45.73;27.40;;;;;;;;;;5037605;28;20199;-76
2021/12/06 10:26:14;;;;;;;46.20;27.90;;;;;;;;;;5035170;28;20270;-76
2021/12/06 10:28:43;;;;;;;40.30;24.30;;;;;;;;;;5036715;28;20214;-76
2021/12/06 10:31:12;;;;;;;45.33;26.03;;;;;;;;;;5034953;28;20227;-75
2021/12/06 10:33:41;;;;;;;53.60;28.40;;;;;;;;;;5038669;28;20226;-75
2021/12/06 10:36:10;;;;;;;49.17;28.87;;;;;;;;;;5034033;28;20242;-76
2021/12/06 10:38:40;;;;;;;47.77;26.70;;;;;;;;;;5038647;28;20239;-76
2021/12/06 10:41:08;;;;;;;44.77;27.33;;;;;;;;;;5036367;28;20381;-76
2021/12/06 10:43:35;;;;;;;51.67;26.83;;;;;;;;;;5037987;28;20595;-75
2021/12/06 10:46:04;;;;;;;48.47;27.47;;;;;;;;;;5036490;28;20271;-75
2021/12/06 10:48:33;;;;;;;47.43;27.67;;;;;;;;;;5037377;28;20235;-76
2021/12/06 10:51:02;;;;;;;38.40;24.30;;;;;;;;;;5036133;28;20358;-75
2021/12/06 10:53:37;;;;;;;39.73;22.77;;;;;;;;;;5036342;28;20283;-76
2021/12/06 10:56:14;;;;;;;40.10;24.83;;;;;;;;;;5037614;28;20217;-75
2021/12/06 10:58:41;;;;;;;43.10;27.67;;;;;;;;;;5036205;28;20217;-75
2021/12/06 11:01:09;;;;;;;46.20;28.43;;;;;;;;;;5036707;28;20254;-75
2021/12/06 11:03:37;;;;;;;48.93;29.23;;;;;;;;;;5035949;28;20203;-76
2021/12/06 11:06:08;;;;;;;46.10;27.27;;;;;;;;;;5037756;28;20962;-76
2021/12/06 11:08:36;;;;;;;48.90;29.10;;;;;;;;;;5036091;28;20746;-75
2021/12/06 11:11:08;;;;;;;46.20;28.17;;;;;;;;;;5036987;28;20289;-76
2021/12/06 11:13:36;;;;;;;42.80;28.20;;;;;;;;;;5036792;28;20202;-76
2021/12/06 11:16:15;;;;;;;48.93;30.13;;;;;;;;;;5036729;28;20779;-76
2021/12/06 11:18:48;;;;;;;47.17;30.13;;;;;;;;;;5036238;28;20214;-76
2021/12/06 11:21:35;;;;;;;48.93;30.53;;;;;;;;;;5035448;28;20202;-76
2021/12/06 11:24:09;;;;;;;44.53;27.57;;;;;;;;;;5037971;28;20575;-76
2021/12/06 11:26:42;;;;;;;46.73;30.00;;;;;;;;;;5034966;28;20230;-75
2021/12/06 11:29:16;;;;;;;47.23;30.97;;;;;;;;;;5038215;28;20268;-76
2021/12/06 11:31:49;;;;;;;45.00;29.87;;;;;;;;;;5036855;28;20227;-76
2021/12/06 11:34:15;;;;;;;43.77;28.13;;;;;;;;;;5035659;28;21003;-75
2021/12/06 11:36:43;;;;;;;49.93;31.37;;;;;;;;;;5036899;28;20676;-75
2021/12/06 11:39:13;;;;;;;48.97;30.43;;;;;;;;;;5034850;28;20238;-75
2021/12/06 11:41:45;;;;;;;50.43;30.60;;;;;;;;;;5037383;28;20227;-76
2021/12/06 11:44:25;;;;;;;48.80;30.70;;;;;;;;;;5034595;28;20202;-75
2021/12/06 11:46:59;;;;;;;44.23;27.67;;;;;;;;;;5035925;28;20892;-75
2021/12/06 11:49:30;;;;;;;45.57;29.13;;;;;;;;;;5035130;28;20226;-76
2021/12/06 11:51:57;;;;;;;48.90;31.13;;;;;;;;;;5036152;28;20585;-75
2021/12/06 11:54:23;;;;;;;53.47;32.20;;;;;;;;;;5035761;28;20806;-75
2021/12/06 11:56:52;;;;;;;46.80;30.43;;;;;;;;;;5035380;28;20261;-75
2021/12/06 11:59:20;;;;;;;46.20;29.93;;;;;;;;;;5036512;28;20246;-75
2021/12/06 12:01:49;;;;;;;46.00;29.57;;;;;;;;;;5034623;28;21002;-75
2021/12/06 12:04:18;;;;;;;47.33;31.33;;;;;;;;;;5035736;28;20291;-76
2021/12/06 12:06:48;;;;;;;47.67;31.93;;;;;;;;;;5034027;28;20305;-76
2021/12/06 12:09:20;;;;;;;49.80;29.60;;;;;;;;;;5036251;28;20244;-76
2021/12/06 12:11:59;;;;;;;50.43;32.53;;;;;;;;;;5036050;28;20287;-75
2021/12/06 12:14:28;;;;;;;50.43;32.00;;;;;;;;;;5037695;28;20214;-75
2021/12/06 12:16:55;;;;;;;46.87;30.20;;;;;;;;;;5037014;28;20602;-75
2021/12/06 12:19:22;;;;;;;45.57;30.43;;;;;;;;;;5037743;28;20979;-75
2021/12/06 12:21:48;;;;;;;45.23;31.53;;;;;;;;;;5037401;28;20272;-75
2021/12/06 12:24:15;;;;;;;41.63;28.73;;;;;;;;;;5036872;28;20358;-75
2021/12/06 12:26:52;;;;;;;47.70;28.93;;;;;;;;;;5032613;28;20620;-75
2021/12/06 12:29:25;;;;;;;40.80;27.60;;;;;;;;;;5035935;28;20389;-76
2021/12/06 12:31:53;;;;;;;43.87;28.47;;;;;;;;;;5035585;28;20225;-75
2021/12/06 12:34:19;;;;;;;45.77;28.73;;;;;;;;;;5034883;28;20207;-75
2021/12/06 12:36:46;;;;;;;44.93;29.53;;;;;;;;;;5036163;28;20271;-75
2021/12/06 12:39:17;;;;;;;45.10;27.33;;;;;;;;;;5036506;28;20249;-75
2021/12/06 12:41:50;;;;;;;44.77;30.07;;;;;;;;;;5034317;28;20209;-75
2021/12/06 12:44:16;;;;;;;45.47;28.67;;;;;;;;;;5034551;28;20228;-75
2021/12/06 12:46:46;;;;;;;44.17;31.20;;;;;;;;;;5034776;28;20580;-75
2021/12/06 12:49:14;;;;;;;45.00;28.10;;;;;;;;;;5034802;28;20816;-75
2021/12/06 12:51:47;;;;;;;46.63;31.27;;;;;;;;;;5034270;28;20210;-75
2021/12/06 12:54:18;;;;;;;41.80;28.50;;;;;;;;;;5033856;28;20268;-75
2021/12/06 12:56:48;;;;;;;43.20;28.27;;;;;;;;;;5036322;28;20202;-75
2021/12/06 12:59:28;;;;;;;41.90;27.07;;;;;;;;;;5034438;28;20287;-75
2021/12/06 13:02:22;;;;;;;40.80;28.87;;;;;;;;;;5036365;28;20229;-75
2021/12/06 13:05:11;;;;;;;41.37;26.50;;;;;;;;;;5034667;28;20743;-76
2021/12/06 13:07:55;;;;;;;43.03;29.63;;;;;;;;;;5033932;28;20735;-75
2021/12/06 13:10:31;;;;;;;42.57;27.60;;;;;;;;;;5034628;28;20984;-75
2021/12/06 13:13:00;;;;;;;46.40;30.80;;;;;;;;;;5033737;28;20211;-75
2021/12/06 13:15:35;;;;;;;48.60;31.57;;;;;;;;;;5036313;28;20213;-75
2021/12/06 13:18:06;;;;;;;48.57;30.00;;;;;;;;;;5037171;28;20215;-75
2021/12/06 13:20:37;;;;;;;43.30;30.07;;;;;;;;;;5039405;28;20298;-75
2021/12/06 13:23:10;;;;;;;43.43;28.13;;;;;;;;;;5038569;28;20263;-75
2021/12/06 13:25:37;;;;;;;43.93;30.00;;;;;;;;;;5037718;28;20249;-75
2021/12/06 13:28:09;;;;;;;43.60;30.83;;;;;;;;;;5038327;28;20321;-75
2021/12/06 13:30:42;;;;;;;43.97;29.57;;;;;;;;;;5038124;28;20917;-75
2021/12/06 13:33:11;;;;;;;33.00;23.77;;;;;;;;;;5039021;28;20206;-75
2021/12/06 13:35:46;;;;;;;35.37;25.27;;;;;;;;;;5037003;28;20211;-74
2021/12/06 13:38:19;;;;;;;31.83;21.70;;;;;;;;;;5038790;28;20310;-75
2021/12/06 13:41:09;;;;;;;31.43;23.27;;;;;;;;;;5037075;28;20225;-74
2021/12/06 13:43:38;;;;;;;26.27;20.33;;;;;;;;;;5038939;28;20222;-74
2021/12/06 13:46:07;;;;;;;28.30;20.40;;;;;;;;;;5038433;28;20636;-74
2021/12/06 13:48:39;;;;;;;27.87;20.10;;;;;;;;;;5037503;28;20273;-74
2021/12/06 13:51:33;;;;;;;29.03;19.47;;;;;;;;;;5039234;28;20259;-74
2021/12/06 13:54:02;;;;;;;31.17;21.03;;;;;;;;;;5036231;28;20777;-74
2021/12/06 13:56:41;;;;;;;28.10;17.90;;;;;;;;;;5038913;28;20230;-74
2021/12/06 13:59:08;;;;;;;32.93;21.00;;;;;;;;;;5037286;28;20566;-74
2021/12/06 14:01:35;;;;;;;31.43;20.53;;;;;;;;;;5036897;28;20230;-74
2021/12/06 14:04:07;;;;;;;30.40;19.13;;;;;;;;;;5037686;28;20234;-74
2021/12/06 14:06:43;;;;;;;31.87;19.63;;;;;;;;;;5038672;28;20218;-74
2021/12/06 14:09:09;;;;;;;33.03;20.60;;;;;;;;;;5037364;28;20633;-74
2021/12/06 14:11:36;;;;;;;30.50;19.60;;;;;;;;;;5036772;28;20241;-75
2021/12/06 14:14:10;;;;;;;31.03;19.73;;;;;;;;;;5038184;28;20276;-74
2021/12/06 14:16:36;;;;;;;31.67;20.73;;;;;;;;;;5036000;28;20238;-73
2021/12/06 14:19:05;;;;;;;30.03;17.30;;;;;;;;;;5039995;28;20537;-73
2021/12/06 14:21:35;;;;;;;34.80;20.77;;;;;;;;;;5035813;28;20241;-73
2021/12/06 14:24:01;;;;;;;31.40;19.60;;;;;;;;;;5038038;28;20236;-74
2021/12/06 14:26:32;;;;;;;30.40;16.63;;;;;;;;;;5036417;28;20222;-74
2021/12/06 14:28:59;;;;;;;30.87;19.73;;;;;;;;;;5037674;28;20635;-73
2021/12/06 14:31:26;;;;;;;22.43;15.60;;;;;;;;;;5036494;28;20222;-74
2021/12/06 14:33:52;;;;;;;27.27;17.37;;;;;;;;;;5036492;28;20218;-75
2021/12/06 14:36:23;;;;;;;22.57;14.13;;;;;;;;;;5037110;28;20669;-75